Time;durP1;ratioP1;P1;durP2;ratioP2;P2;SDS_P1;SDS_P2;PMS_P1;PMS_P2;Temp;Humidity;BMP_temperature;BMP_pressure;BME280_temperature;BME280_humidity;BME280_pressure;Samples;Min_cycle;Max_cycle;Signal;HPM_P1;HPM_P2
2022/02/04 00:22:21;;;;;;;67.13;37.10;;;;;;;;;;5003852;28;20055;-84
2022/02/04 00:24:38;;;;;;;71.40;37.05;;;;;;;;;;5013457;28;20081;-84
2022/02/04 00:27:10;;;;;;;74.55;37.95;;;;;;;;;;4999379;28;20407;-91
2022/02/04 00:29:51;;;;;;;86.03;38.90;;;;;;;;;;5011550;28;20454;-84
2022/02/04 00:32:20;;;;;;;73.75;35.72;;;;;;;;;;4993054;28;20080;-89
2022/02/04 00:34:53;;;;;;;87.18;37.67;;;;;;;;;;4997618;28;20045;-87
2022/02/04 00:37:39;;;;;;;82.68;38.50;;;;;;;;;;4998909;28;20496;-94
2022/02/04 00:40:16;;;;;;;80.13;36.90;;;;;;;;;;4981712;28;20067;-90
2022/02/04 00:42:43;;;;;;;74.13;37.20;;;;;;;;;;4996808;28;20087;-90
2022/02/04 00:45:34;;;;;;;76.07;37.05;;;;;;;;;;4996260;28;20053;-89
2022/02/04 00:48:11;;;;;;;68.40;35.60;;;;;;;;;;5019392;28;20053;-92
2022/02/04 00:50:54;;;;;;;79.57;36.33;;;;;;;;;;4981981;28;20061;-94
2022/02/04 00:53:35;;;;;;;77.32;35.50;;;;;;;;;;4996992;28;20053;-92
2022/02/04 01:13:27;;;;;;;62.53;32.58;;;;;;;;;;4987901;28;20090;-89
2022/02/04 01:26:42;;;;;;;55.45;32.25;;;;;;;;;;4987738;28;20149;-91
2022/02/04 01:29:10;;;;;;;55.17;32.05;;;;;;;;;;4969088;28;20109;-88
2022/02/04 01:31:36;;;;;;;52.65;30.55;;;;;;;;;;4987134;28;20058;-89
2022/02/04 01:34:02;;;;;;;59.55;33.35;;;;;;;;;;4957403;28;20038;-90
2022/02/04 01:36:28;;;;;;;54.97;31.92;;;;;;;;;;4966806;28;20089;-89
2022/02/04 01:38:54;;;;;;;57.78;32.70;;;;;;;;;;4987474;28;20101;-90
2022/02/04 01:41:20;;;;;;;60.92;32.15;;;;;;;;;;4956622;28;20054;-90
2022/02/04 01:43:46;;;;;;;55.72;32.33;;;;;;;;;;4973395;28;20482;-88
2022/02/04 01:46:13;;;;;;;61.22;32.47;;;;;;;;;;4973047;28;20069;-89
2022/02/04 01:48:40;;;;;;;60.95;32.95;;;;;;;;;;4973533;28;20115;-91
2022/02/04 01:51:07;;;;;;;56.97;33.55;;;;;;;;;;4970635;28;20047;-93
2022/02/04 01:53:34;;;;;;;59.15;33.38;;;;;;;;;;4987998;28;20078;-91
2022/02/04 01:56:01;;;;;;;57.97;30.95;;;;;;;;;;4988492;28;21518;-91
2022/02/04 01:58:28;;;;;;;55.83;30.48;;;;;;;;;;4973667;28;20046;-93
2022/02/04 02:00:54;;;;;;;58.95;31.45;;;;;;;;;;4970323;28;20096;-91
2022/02/04 02:03:22;;;;;;;53.95;30.25;;;;;;;;;;4973734;28;20043;-92
2022/02/04 02:05:49;;;;;;;51.35;30.33;;;;;;;;;;4971121;28;20046;-89
2022/02/04 02:08:18;;;;;;;53.53;30.48;;;;;;;;;;4971017;28;20046;-88
2022/02/04 02:10:45;;;;;;;53.38;29.55;;;;;;;;;;4982900;28;21038;-92
2022/02/04 02:13:42;;;;;;;57.63;31.10;;;;;;;;;;4966954;28;20485;-89
2022/02/04 02:51:40;;;;;;;48.03;27.92;;;;;;;;;;4930121;29;20066;-92
2022/02/04 02:59:44;;;;;;;51.38;28.63;;;;;;;;;;4989966;28;20054;-91
2022/02/04 03:02:10;;;;;;;53.75;31.00;;;;;;;;;;4976104;28;20054;-92
2022/02/04 03:04:37;;;;;;;53.08;29.73;;;;;;;;;;4975066;28;20416;-88
2022/02/04 03:07:03;;;;;;;50.40;30.00;;;;;;;;;;4975152;28;20062;-88
2022/02/04 03:09:29;;;;;;;51.63;28.75;;;;;;;;;;4980182;28;20272;-90
2022/02/04 03:11:55;;;;;;;57.38;29.60;;;;;;;;;;4955852;28;20094;-89
2022/02/04 03:14:21;;;;;;;54.00;29.20;;;;;;;;;;4969580;28;20050;-92
2022/02/04 03:16:47;;;;;;;50.75;28.55;;;;;;;;;;4975421;28;20053;-90
2022/02/04 03:19:14;;;;;;;47.70;28.23;;;;;;;;;;4955672;28;20041;-91
2022/02/04 03:21:44;;;;;;;49.35;27.30;;;;;;;;;;4970828;28;20070;-91
2022/02/04 03:24:16;;;;;;;53.58;29.90;;;;;;;;;;4972850;28;20093;-90
2022/02/04 03:26:52;;;;;;;50.20;27.10;;;;;;;;;;4989962;28;20050;-92
2022/02/04 03:29:27;;;;;;;55.58;28.85;;;;;;;;;;4975145;28;20057;-91
2022/02/04 03:31:58;;;;;;;52.33;28.33;;;;;;;;;;4965785;28;20060;-89
2022/02/04 03:34:24;;;;;;;53.72;28.02;;;;;;;;;;4972488;28;20082;-91
2022/02/04 03:36:50;;;;;;;52.50;29.23;;;;;;;;;;4970678;28;20046;-89
2022/02/04 03:39:16;;;;;;;47.97;27.98;;;;;;;;;;4959643;28;20077;-92
2022/02/04 03:41:43;;;;;;;50.33;26.77;;;;;;;;;;4956369;28;20042;-94
2022/02/04 03:44:09;;;;;;;54.42;28.95;;;;;;;;;;4956224;28;20080;-90
2022/02/04 03:46:35;;;;;;;47.60;28.27;;;;;;;;;;4958175;28;20042;-92
2022/02/04 03:49:01;;;;;;;48.22;27.77;;;;;;;;;;4975471;28;22067;-95
2022/02/04 03:51:27;;;;;;;53.53;28.30;;;;;;;;;;4972191;28;20158;-96
2022/02/04 03:53:53;;;;;;;43.88;27.60;;;;;;;;;;4960571;28;20129;-90
2022/02/04 03:56:19;;;;;;;52.10;28.30;;;;;;;;;;4954759;28;20051;-90
2022/02/04 03:58:45;;;;;;;50.17;27.70;;;;;;;;;;4978298;28;20038;-91
2022/02/04 04:01:12;;;;;;;48.88;27.13;;;;;;;;;;4958870;28;20057;-94
2022/02/04 04:03:38;;;;;;;45.28;26.83;;;;;;;;;;4983512;28;20081;-91
2022/02/04 04:06:05;;;;;;;46.20;27.05;;;;;;;;;;4977101;28;20049;-92
2022/02/04 04:08:31;;;;;;;50.80;27.83;;;;;;;;;;4978077;28;20054;-92
2022/02/04 04:10:57;;;;;;;55.05;27.63;;;;;;;;;;4977873;28;20046;-91
2022/02/04 04:13:23;;;;;;;48.30;25.63;;;;;;;;;;4992208;28;20069;-91
2022/02/04 04:15:49;;;;;;;45.92;26.50;;;;;;;;;;4991343;28;20053;-90
2022/02/04 04:18:16;;;;;;;47.15;25.58;;;;;;;;;;4992593;28;20034;-89
2022/02/04 04:20:43;;;;;;;50.60;27.17;;;;;;;;;;4994549;28;20070;-88
2022/02/04 04:23:10;;;;;;;48.42;25.90;;;;;;;;;;5010044;28;20057;-90
2022/02/04 04:25:36;;;;;;;46.42;25.00;;;;;;;;;;5005158;28;20030;-92
2022/02/04 04:28:02;;;;;;;46.85;23.73;;;;;;;;;;4995498;28;20030;-91
2022/02/04 04:30:28;;;;;;;40.40;24.02;;;;;;;;;;4993745;28;20049;-91
2022/02/04 04:32:56;;;;;;;38.33;22.83;;;;;;;;;;4993832;28;20056;-92
2022/02/04 04:35:24;;;;;;;44.42;24.35;;;;;;;;;;4993780;28;20122;-90
2022/02/04 04:46:20;;;;;;;43.35;21.90;;;;;;;;;;5010946;28;20057;-89
2022/02/04 05:30:04;;;;;;;33.75;21.02;;;;;;;;;;4998919;28;20122;-90
2022/02/04 05:32:30;;;;;;;39.30;22.42;;;;;;;;;;5011429;28;20060;-92
2022/02/04 05:34:56;;;;;;;33.97;20.40;;;;;;;;;;4979773;28;20052;-93
2022/02/04 05:37:23;;;;;;;37.55;20.17;;;;;;;;;;4978480;28;20050;-94
2022/02/04 05:42:20;;;;;;;39.28;20.73;;;;;;;;;;5014499;28;20133;-95
2022/02/04 05:44:54;;;;;;;39.75;21.25;;;;;;;;;;4981077;28;20049;-94
2022/02/04 05:47:20;;;;;;;31.83;19.45;;;;;;;;;;4991460;28;20045;-95
2022/02/04 05:52:46;;;;;;;34.28;18.27;;;;;;;;;;5018004;28;20045;-96
2022/02/04 05:55:39;;;;;;;35.80;18.30;;;;;;;;;;5021723;28;20050;-88
2022/02/04 05:58:23;;;;;;;34.25;17.75;;;;;;;;;;5019845;28;20065;-91
2022/02/04 06:01:23;;;;;;;34.75;17.27;;;;;;;;;;5008735;28;20046;-87
2022/02/04 06:11:32;;;;;;;30.35;16.05;;;;;;;;;;5001389;28;20045;-88
2022/02/04 06:22:29;;;;;;;29.95;14.25;;;;;;;;;;4992647;28;20060;-90
2022/02/04 06:24:54;;;;;;;25.23;12.55;;;;;;;;;;4999624;28;20060;-88
2022/02/04 06:27:21;;;;;;;25.02;12.05;;;;;;;;;;4975953;28;20049;-88
2022/02/04 06:29:49;;;;;;;23.75;11.98;;;;;;;;;;5009748;28;20049;-86
2022/02/04 06:32:16;;;;;;;24.45;12.07;;;;;;;;;;4989547;28;20156;-87
2022/02/04 06:34:43;;;;;;;20.27;11.18;;;;;;;;;;4997316;28;20045;-87
2022/02/04 06:37:09;;;;;;;22.85;10.93;;;;;;;;;;4994022;28;20546;-87
2022/02/04 06:39:35;;;;;;;22.92;10.30;;;;;;;;;;4990067;28;20045;-85
2022/02/04 06:42:01;;;;;;;25.38;11.25;;;;;;;;;;4996392;28;20071;-85
2022/02/04 06:44:28;;;;;;;20.40;10.43;;;;;;;;;;4980169;28;20072;-82
2022/02/04 06:46:54;;;;;;;23.10;10.32;;;;;;;;;;5015408;28;20567;-87
2022/02/04 06:49:20;;;;;;;26.33;10.52;;;;;;;;;;4981723;28;20056;-90
2022/02/04 06:51:46;;;;;;;21.60;10.57;;;;;;;;;;5000017;28;20099;-87
2022/02/04 06:54:12;;;;;;;23.73;14.23;;;;;;;;;;4981226;28;20091;-87
2022/02/04 06:56:38;;;;;;;23.60;10.85;;;;;;;;;;4992483;28;20073;-87
2022/02/04 06:59:05;;;;;;;26.08;10.35;;;;;;;;;;5016317;28;20108;-88
2022/02/04 07:01:33;;;;;;;25.42;10.57;;;;;;;;;;5012282;28;20042;-90
2022/02/04 07:04:03;;;;;;;15.65;10.20;;;;;;;;;;4981084;28;20053;-89
2022/02/04 07:06:31;;;;;;;18.40;10.25;;;;;;;;;;4998161;28;20076;-87
2022/02/04 07:09:14;;;;;;;18.50;10.30;;;;;;;;;;4999532;28;20077;-88
2022/02/04 07:16:54;;;;;;;30.08;10.85;;;;;;;;;;4976350;28;20212;-87
2022/02/04 07:22:05;;;;;;;18.98;10.30;;;;;;;;;;4972598;28;20493;-88
2022/02/04 07:24:32;;;;;;;23.58;11.02;;;;;;;;;;4951833;28;20050;-87
2022/02/04 07:26:58;;;;;;;23.10;11.02;;;;;;;;;;4955677;28;20046;-89
2022/02/04 07:29:24;;;;;;;22.38;11.00;;;;;;;;;;4986459;28;20046;-89
2022/02/04 07:31:52;;;;;;;23.90;12.15;;;;;;;;;;4957722;28;20046;-87
2022/02/04 07:34:39;;;;;;;20.50;12.18;;;;;;;;;;4967192;28;20039;-87
2022/02/04 07:42:48;;;;;;;23.83;11.73;;;;;;;;;;4962884;28;20056;-88
2022/02/04 07:45:14;;;;;;;24.65;11.88;;;;;;;;;;4954729;28;20097;-86
2022/02/04 07:47:40;;;;;;;24.98;11.35;;;;;;;;;;4958284;28;20047;-88
2022/02/04 07:50:07;;;;;;;19.88;11.63;;;;;;;;;;4992326;28;20559;-90
2022/02/04 07:52:33;;;;;;;22.40;10.77;;;;;;;;;;4992217;28;20054;-88
2022/02/04 07:55:00;;;;;;;22.33;12.32;;;;;;;;;;4972107;28;20085;-88
2022/02/04 07:57:26;;;;;;;19.92;11.13;;;;;;;;;;4973615;28;20046;-87
2022/02/04 07:59:54;;;;;;;21.42;10.48;;;;;;;;;;4973805;28;20157;-87
2022/02/04 08:02:20;;;;;;;19.35;10.00;;;;;;;;;;4987425;28;20501;-87
2022/02/04 08:04:48;;;;;;;20.58;10.40;;;;;;;;;;4959896;28;20050;-87
2022/02/04 08:07:16;;;;;;;19.30;10.63;;;;;;;;;;4960416;28;20045;-86
2022/02/04 08:10:13;;;;;;;20.63;11.00;;;;;;;;;;4989623;28;20089;-87
2022/02/04 08:18:27;;;;;;;19.67;10.10;;;;;;;;;;4905493;28;20483;-87
2022/02/04 08:23:57;;;;;;;17.58;10.23;;;;;;;;;;4967144;28;20078;-89
2022/02/04 08:26:46;;;;;;;16.23;9.75;;;;;;;;;;4966200;28;20386;-88
2022/02/04 08:30:23;;;;;;;14.02;8.60;;;;;;;;;;4976568;28;20049;-88
2022/02/04 08:32:29;;;;;;;14.13;8.18;;;;;;;;;;4969690;28;20065;-88
2022/02/04 08:51:07;;;;;;;10.43;6.20;;;;;;;;;;4993729;28;20058;-89
2022/02/04 08:56:22;;;;;;;11.30;5.82;;;;;;;;;;4977276;28;20054;-89
2022/02/04 08:58:54;;;;;;;9.05;6.28;;;;;;;;;;4955208;28;20409;-88
2022/02/04 09:01:30;;;;;;;11.13;6.30;;;;;;;;;;4960439;28;20042;-90
2022/02/04 09:04:15;;;;;;;10.63;6.22;;;;;;;;;;4975697;28;20047;-88
2022/02/04 09:06:48;;;;;;;11.13;5.85;;;;;;;;;;4960239;28;20413;-90
2022/02/04 09:09:27;;;;;;;17.20;7.00;;;;;;;;;;4950335;28;20086;-87
2022/02/04 09:12:04;;;;;;;10.98;6.97;;;;;;;;;;4973588;28;20057;-85
2022/02/04 09:17:44;;;;;;;11.38;8.70;;;;;;;;;;5002750;28;20105;-84
2022/02/04 09:20:23;;;;;;;13.50;8.65;;;;;;;;;;4996186;28;20498;-87
2022/02/04 09:22:50;;;;;;;12.80;8.75;;;;;;;;;;4976287;28;20050;-84
2022/02/04 09:25:17;;;;;;;12.68;8.55;;;;;;;;;;4959682;28;20053;-87
2022/02/04 09:27:43;;;;;;;15.73;9.90;;;;;;;;;;4958749;28;20042;-84
2022/02/04 09:30:10;;;;;;;15.70;10.13;;;;;;;;;;4975766;28;20057;-85
2022/02/04 09:32:36;;;;;;;13.23;10.35;;;;;;;;;;4960760;28;20055;-85
2022/02/04 09:35:06;;;;;;;17.60;11.05;;;;;;;;;;4984797;28;20130;-85
2022/02/04 09:37:33;;;;;;;14.73;11.15;;;;;;;;;;4973880;28;20070;-85
2022/02/04 09:40:05;;;;;;;14.43;11.63;;;;;;;;;;4973936;28;20563;-84
2022/02/04 09:42:32;;;;;;;23.15;13.25;;;;;;;;;;4962871;28;20054;-84
2022/02/04 09:44:59;;;;;;;15.50;12.43;;;;;;;;;;4995784;28;20393;-86
2022/02/04 09:47:33;;;;;;;18.00;13.82;;;;;;;;;;4978594;28;20077;-86
2022/02/04 09:50:01;;;;;;;17.45;13.57;;;;;;;;;;4979448;28;20106;-88
2022/02/04 10:09:30;;;;;;;20.58;14.60;;;;;;;;;;4972852;28;20050;-88
2022/02/04 10:14:50;;;;;;;16.95;13.05;;;;;;;;;;4980675;28;20506;-83
2022/02/04 10:22:08;;;;;;;17.25;12.65;;;;;;;;;;4994840;28;20133;-82
2022/02/04 10:24:35;;;;;;;14.73;11.82;;;;;;;;;;4977759;28;20073;-83
2022/02/04 10:27:13;;;;;;;15.95;11.93;;;;;;;;;;4952616;28;20389;-88
2022/02/04 10:29:40;;;;;;;15.50;11.13;;;;;;;;;;4996931;28;20050;-84
2022/02/04 10:32:06;;;;;;;15.68;10.93;;;;;;;;;;4967636;28;20494;-83
2022/02/04 10:34:34;;;;;;;15.95;10.90;;;;;;;;;;4974631;28;20051;-89
2022/02/04 10:37:03;;;;;;;12.73;10.55;;;;;;;;;;4963075;28;20047;-87
2022/02/04 10:58:29;;;;;;;12.23;7.57;;;;;;;;;;4992702;28;20038;-83
2022/02/04 11:03:28;;;;;;;13.15;7.72;;;;;;;;;;5012325;28;20060;-87
2022/02/04 11:06:06;;;;;;;12.10;7.65;;;;;;;;;;4999742;28;20092;-86
2022/02/04 11:30:55;;;;;;;7.93;6.28;;;;;;;;;;5015597;28;20045;-85
2022/02/04 11:37:06;;;;;;;8.15;5.47;;;;;;;;;;4992962;28;20132;-85
2022/02/04 11:50:57;;;;;;;7.45;4.75;;;;;;;;;;5000366;28;20481;-87
2022/02/04 11:55:11;;;;;;;4.97;4.45;;;;;;;;;;4981367;28;20049;-87
2022/02/04 11:57:38;;;;;;;6.43;4.60;;;;;;;;;;4980990;28;20503;-88
2022/02/04 12:00:16;;;;;;;5.80;4.70;;;;;;;;;;5000247;28;20049;-87
2022/02/04 12:02:43;;;;;;;4.78;4.07;;;;;;;;;;5016465;28;20476;-86
2022/02/04 12:05:11;;;;;;;6.22;4.68;;;;;;;;;;5009442;28;20443;-85
2022/02/04 12:07:40;;;;;;;5.15;3.92;;;;;;;;;;4986525;28;20096;-89
2022/02/04 12:10:12;;;;;;;5.80;4.18;;;;;;;;;;5000700;28;20046;-86
2022/02/04 12:12:59;;;;;;;6.28;3.90;;;;;;;;;;5003179;28;20081;-92
2022/02/04 12:15:31;;;;;;;5.53;3.97;;;;;;;;;;5000584;28;20515;-88
2022/02/04 12:18:00;;;;;;;9.30;4.30;;;;;;;;;;5003352;28;20102;-90
2022/02/04 12:20:49;;;;;;;6.20;3.78;;;;;;;;;;4981984;28;20124;-88
2022/02/04 12:26:09;;;;;;;5.88;4.03;;;;;;;;;;5000343;28;20493;-88
2022/02/04 12:28:40;;;;;;;6.38;3.40;;;;;;;;;;4991715;28;20049;-87
2022/02/04 12:31:06;;;;;;;11.77;3.63;;;;;;;;;;5000063;28;20045;-87
2022/02/04 12:33:39;;;;;;;4.65;3.13;;;;;;;;;;4997957;28;20047;-89
2022/02/04 12:36:05;;;;;;;7.00;3.15;;;;;;;;;;5001533;28;20052;-86
2022/02/04 12:38:32;;;;;;;6.53;3.35;;;;;;;;;;4990336;28;20081;-90
2022/02/04 12:41:03;;;;;;;6.22;3.90;;;;;;;;;;4989941;28;20056;-91
2022/02/04 12:43:44;;;;;;;8.25;3.72;;;;;;;;;;4981097;28;20133;-92
2022/02/04 12:46:11;;;;;;;7.80;4.22;;;;;;;;;;4980952;28;20116;-91
2022/02/04 12:48:39;;;;;;;6.75;3.63;;;;;;;;;;4993565;28;20076;-90
2022/02/04 12:51:09;;;;;;;7.40;4.05;;;;;;;;;;4999826;28;20038;-89
2022/02/04 12:53:41;;;;;;;5.57;3.88;;;;;;;;;;4980931;28;20408;-90
2022/02/04 12:56:20;;;;;;;5.88;3.83;;;;;;;;;;4979760;28;20041;-88
2022/02/04 13:07:32;;;;;;;4.97;4.28;;;;;;;;;;4981008;28;20493;-81
2022/02/04 13:09:58;;;;;;;7.03;4.82;;;;;;;;;;4990999;28;20060;-83
2022/02/04 13:12:24;;;;;;;5.22;3.70;;;;;;;;;;4995040;28;20100;-84
2022/02/04 13:14:51;;;;;;;5.00;1.67;;;;;;;;;;4978618;28;20096;-83
2022/02/04 13:17:36;;;;;;;2.97;0.98;;;;;;;;;;4984791;28;20053;-84
2022/02/04 13:20:03;;;;;;;6.45;0.60;;;;;;;;;;5000845;28;20137;-83
2022/02/04 13:22:29;;;;;;;6.50;0.52;;;;;;;;;;4973872;28;20045;-82
2022/02/04 13:25:07;;;;;;;2.33;0.38;;;;;;;;;;5025567;28;20050;-80
2022/02/04 13:27:34;;;;;;;3.78;0.40;;;;;;;;;;4999210;28;20045;-82
2022/02/04 13:30:00;;;;;;;4.65;0.43;;;;;;;;;;4996220;28;20096;-82
2022/02/04 13:32:26;;;;;;;3.40;0.50;;;;;;;;;;4981004;28;20092;-83
2022/02/04 13:34:53;;;;;;;2.72;0.43;;;;;;;;;;4992820;28;20042;-86
2022/02/04 13:37:37;;;;;;;2.63;0.40;;;;;;;;;;4991181;28;20091;-85
2022/02/04 13:40:14;;;;;;;0.55;0.20;;;;;;;;;;4997681;28;20439;-82
2022/02/04 13:42:46;;;;;;;1.02;0.30;;;;;;;;;;4992621;28;20500;-85
2022/02/04 13:45:24;;;;;;;1.33;0.22;;;;;;;;;;4979113;28;20049;-88
2022/02/04 13:48:04;;;;;;;3.50;0.40;;;;;;;;;;4983934;28;20073;-88
2022/02/04 13:58:33;;;;;;;2.03;0.57;;;;;;;;;;5006507;28;20049;-86
2022/02/04 14:03:38;;;;;;;0.85;0.20;;;;;;;;;;5009141;28;20045;-83
2022/02/04 14:06:10;;;;;;;1.13;0.38;;;;;;;;;;4997267;28;20452;-85
2022/02/04 14:11:34;;;;;;;1.17;0.20;;;;;;;;;;4998962;28;20095;-92
2022/02/04 14:14:01;;;;;;;1.73;0.30;;;;;;;;;;5000419;28;20053;-96
2022/02/04 14:16:28;;;;;;;2.42;0.30;;;;;;;;;;4999241;28;20041;-85
2022/02/04 14:18:54;;;;;;;0.43;0.20;;;;;;;;;;4998205;28;20396;-85
2022/02/04 14:21:20;;;;;;;1.88;0.43;;;;;;;;;;4978733;28;20187;-94
2022/02/04 14:23:50;;;;;;;2.95;0.55;;;;;;;;;;4985575;28;20037;-84
2022/02/04 14:26:43;;;;;;;1.35;0.50;;;;;;;;;;4988170;28;20087;-82
2022/02/04 14:29:10;;;;;;;6.38;0.73;;;;;;;;;;4998251;28;20057;-83
2022/02/04 14:32:02;;;;;;;5.03;0.50;;;;;;;;;;4983534;28;20046;-82
2022/02/04 14:34:50;;;;;;;3.03;0.73;;;;;;;;;;5000322;28;20045;-86
2022/02/04 14:51:29;;;;;;;1.92;0.30;;;;;;;;;;5001760;28;20060;-85
2022/02/04 14:54:02;;;;;;;3.78;0.50;;;;;;;;;;5003698;28;20072;-85
2022/02/04 15:01:50;;;;;;;4.60;0.80;;;;;;;;;;4998230;28;20042;-87
2022/02/04 15:07:12;;;;;;;1.65;0.80;;;;;;;;;;4984009;28;20042;-84
2022/02/04 15:09:47;;;;;;;2.10;0.43;;;;;;;;;;5002329;28;20132;-84
2022/02/04 15:12:13;;;;;;;2.80;0.50;;;;;;;;;;5001366;28;20613;-84
2022/02/04 15:14:39;;;;;;;3.13;0.40;;;;;;;;;;4977906;28;20073;-87
2022/02/04 15:17:05;;;;;;;2.70;0.30;;;;;;;;;;4979148;28;20073;-86
2022/02/04 15:19:33;;;;;;;2.92;0.40;;;;;;;;;;4956853;28;20494;-86
2022/02/04 15:22:02;;;;;;;0.82;0.20;;;;;;;;;;4956426;28;20085;-86
2022/02/04 15:24:28;;;;;;;2.33;0.30;;;;;;;;;;4974356;28;20043;-90
2022/02/04 15:26:54;;;;;;;3.45;0.30;;;;;;;;;;4976436;28;20058;-86
2022/02/04 15:29:21;;;;;;;2.70;0.40;;;;;;;;;;4976143;28;20038;-89
2022/02/04 15:31:54;;;;;;;1.85;0.40;;;;;;;;;;4961999;28;20116;-87
2022/02/04 15:34:22;;;;;;;1.48;0.32;;;;;;;;;;4956643;28;20050;-88
2022/02/04 15:36:49;;;;;;;2.45;0.40;;;;;;;;;;4970034;28;20046;-87
2022/02/04 15:39:17;;;;;;;4.47;0.50;;;;;;;;;;4945471;28;20046;-88
2022/02/04 15:41:43;;;;;;;4.68;0.50;;;;;;;;;;4976779;28;20073;-87
2022/02/04 15:45:01;;;;;;;3.20;0.47;;;;;;;;;;4970865;28;20054;-86
2022/02/04 15:49:56;;;;;;;6.18;0.80;;;;;;;;;;4993502;28;20402;-88
2022/02/04 15:58:12;;;;;;;6.90;0.88;;;;;;;;;;4972503;28;20047;-82
2022/02/04 16:06:03;;;;;;;4.15;0.60;;;;;;;;;;4972180;28;20077;-86
2022/02/04 16:08:30;;;;;;;5.80;1.20;;;;;;;;;;4974489;28;20084;-76
2022/02/04 16:11:06;;;;;;;6.60;0.85;;;;;;;;;;4972340;28;20121;-84
2022/02/04 16:19:06;;;;;;;6.30;0.90;;;;;;;;;;5017642;28;20503;-86
2022/02/04 16:21:47;;;;;;;3.88;0.98;;;;;;;;;;4992893;28;20482;-81
2022/02/04 16:29:38;;;;;;;6.57;1.27;;;;;;;;;;4967436;28;20046;-84
2022/02/04 16:32:04;;;;;;;4.32;0.80;;;;;;;;;;5009772;28;20050;-90
2022/02/04 16:34:30;;;;;;;7.82;1.05;;;;;;;;;;4975444;28;20053;-89
2022/02/04 16:37:02;;;;;;;8.82;1.30;;;;;;;;;;5017431;28;20520;-88
2022/02/04 16:39:29;;;;;;;6.78;1.00;;;;;;;;;;4995801;28;20049;-90
2022/02/04 16:42:04;;;;;;;15.43;1.90;;;;;;;;;;4991824;28;20061;-88
2022/02/04 16:44:31;;;;;;;5.65;1.00;;;;;;;;;;4992544;28;20053;-84
2022/02/04 16:47:01;;;;;;;5.55;1.05;;;;;;;;;;4984499;28;20072;-85
2022/02/04 16:49:30;;;;;;;4.70;1.10;;;;;;;;;;4990109;28;20050;-87
2022/02/04 16:52:05;;;;;;;6.93;1.63;;;;;;;;;;4992422;28;20125;-91
2022/02/04 16:54:33;;;;;;;5.03;1.67;;;;;;;;;;5007663;28;20041;-85
2022/02/04 16:57:00;;;;;;;8.75;1.50;;;;;;;;;;5013349;28;20049;-88
2022/02/04 16:59:26;;;;;;;10.15;1.20;;;;;;;;;;4989457;28;20046;-82
2022/02/04 17:01:52;;;;;;;7.47;1.30;;;;;;;;;;4973228;28;20042;-83
2022/02/04 17:04:18;;;;;;;3.55;1.02;;;;;;;;;;4987640;28;20050;-82
2022/02/04 17:06:48;;;;;;;5.13;0.65;;;;;;;;;;4991860;28;20054;-87
2022/02/04 17:11:43;;;;;;;7.85;1.85;;;;;;;;;;4988671;28;20053;-85
2022/02/04 17:14:10;;;;;;;3.63;1.10;;;;;;;;;;4995087;28;20108;-91
2022/02/04 17:16:42;;;;;;;8.05;0.93;;;;;;;;;;4997474;28;20053;-94
2022/02/04 17:19:09;;;;;;;7.55;1.08;;;;;;;;;;4995631;28;20133;-91
2022/02/04 17:21:35;;;;;;;8.68;1.17;;;;;;;;;;4986392;28;20164;-95
2022/02/04 17:24:02;;;;;;;7.43;1.88;;;;;;;;;;5006549;28;20045;-91
2022/02/04 17:26:28;;;;;;;9.85;2.17;;;;;;;;;;5019956;28;20041;-89
2022/02/04 17:28:54;;;;;;;8.32;1.83;;;;;;;;;;5004535;28;20084;-85
2022/02/04 17:31:21;;;;;;;10.80;1.85;;;;;;;;;;5015685;28;20128;-82
2022/02/04 17:33:47;;;;;;;7.32;2.25;;;;;;;;;;5018653;28;20136;-93
2022/02/04 17:36:13;;;;;;;13.25;1.52;;;;;;;;;;5001083;28;20133;-85
2022/02/04 17:38:42;;;;;;;11.30;2.08;;;;;;;;;;4995032;28;20053;-82
2022/02/04 17:41:09;;;;;;;9.60;1.48;;;;;;;;;;4993768;28;20054;-85
2022/02/04 17:43:35;;;;;;;9.27;1.90;;;;;;;;;;4993392;28;20286;-78
2022/02/04 17:46:03;;;;;;;8.75;1.77;;;;;;;;;;5011372;28;20053;-82
2022/02/04 17:48:52;;;;;;;10.15;2.30;;;;;;;;;;5006730;28;20157;-84
2022/02/04 17:51:31;;;;;;;13.02;1.83;;;;;;;;;;4995572;28;20100;-84
2022/02/04 17:54:00;;;;;;;11.00;2.35;;;;;;;;;;4980014;28;20054;-83
2022/02/04 17:56:49;;;;;;;11.80;1.83;;;;;;;;;;4982525;28;20084;-84
2022/02/04 17:59:48;;;;;;;12.65;1.75;;;;;;;;;;5008599;28;20061;-82
2022/02/04 18:07:40;;;;;;;11.65;1.75;;;;;;;;;;5000573;28;20048;-82
2022/02/04 18:10:08;;;;;;;9.98;1.95;;;;;;;;;;4998619;28;20128;-80
2022/02/04 18:12:36;;;;;;;12.82;1.95;;;;;;;;;;4997252;28;20048;-79
2022/02/04 18:15:03;;;;;;;18.42;2.17;;;;;;;;;;5015813;28;20073;-86
2022/02/04 18:17:29;;;;;;;13.88;2.38;;;;;;;;;;5006912;28;20060;-85
2022/02/04 18:19:55;;;;;;;10.10;2.30;;;;;;;;;;4983927;28;20054;-84
2022/02/04 18:22:21;;;;;;;13.93;2.25;;;;;;;;;;4997344;28;20095;-82
2022/02/04 18:24:47;;;;;;;15.93;2.30;;;;;;;;;;4999398;28;20065;-81
2022/02/04 18:27:13;;;;;;;14.15;2.00;;;;;;;;;;4978290;28;20071;-83
2022/02/04 18:29:45;;;;;;;15.52;2.55;;;;;;;;;;5012640;28;20076;-87
2022/02/04 18:32:11;;;;;;;11.50;1.98;;;;;;;;;;4997876;28;20037;-87
2022/02/04 18:34:37;;;;;;;10.52;1.42;;;;;;;;;;5002935;28;20477;-79
2022/02/04 18:37:05;;;;;;;15.50;1.63;;;;;;;;;;5003383;28;20172;-86
2022/02/04 18:39:52;;;;;;;8.77;1.98;;;;;;;;;;5013386;28;20306;-86
2022/02/04 18:45:17;;;;;;;5.93;1.27;;;;;;;;;;4990361;28;20064;-81
2022/02/04 18:48:02;;;;;;;7.22;1.45;;;;;;;;;;5014028;28;20049;-86
2022/02/04 18:55:44;;;;;;;9.10;1.20;;;;;;;;;;5009626;28;20058;-83
2022/02/04 18:58:12;;;;;;;10.20;1.55;;;;;;;;;;4996638;28;20049;-83
2022/02/04 19:00:38;;;;;;;11.30;1.65;;;;;;;;;;4996238;28;20060;-85
2022/02/04 19:03:09;;;;;;;7.82;1.80;;;;;;;;;;5012756;28;20083;-86
2022/02/04 19:05:42;;;;;;;10.50;2.10;;;;;;;;;;5002610;28;20108;-91
2022/02/04 19:08:17;;;;;;;14.57;2.20;;;;;;;;;;4995699;28;20103;-82
2022/02/04 19:10:43;;;;;;;12.55;2.13;;;;;;;;;;4982226;28;20053;-79
2022/02/04 19:13:22;;;;;;;16.63;3.53;;;;;;;;;;5011159;28;20053;-82
2022/02/04 19:18:41;;;;;;;11.43;1.90;;;;;;;;;;5013295;28;20100;-90
2022/02/04 19:21:11;;;;;;;15.32;1.95;;;;;;;;;;4983063;28;20500;-90
2022/02/04 19:23:47;;;;;;;14.27;1.75;;;;;;;;;;4989436;28;20050;-84
2022/02/04 19:26:17;;;;;;;10.90;1.77;;;;;;;;;;4996300;28;20057;-85
2022/02/04 19:28:43;;;;;;;11.23;1.90;;;;;;;;;;5015747;28;20081;-85
2022/02/04 19:31:09;;;;;;;16.23;2.85;;;;;;;;;;4999200;28;20077;-86
2022/02/04 19:33:35;;;;;;;11.73;2.28;;;;;;;;;;5010794;28;20128;-84
2022/02/04 19:36:01;;;;;;;12.07;3.72;;;;;;;;;;4998695;28;20096;-90
2022/02/04 19:38:28;;;;;;;11.35;2.33;;;;;;;;;;5008844;28;20073;-90
2022/02/04 19:40:55;;;;;;;19.15;2.70;;;;;;;;;;5018023;28;20080;-91
2022/02/04 19:43:24;;;;;;;9.35;2.25;;;;;;;;;;4998440;28;20099;-94
2022/02/04 19:45:57;;;;;;;13.27;2.80;;;;;;;;;;4977888;28;20113;-94
2022/02/04 19:48:33;;;;;;;11.40;3.50;;;;;;;;;;5013354;28;20041;-91
2022/02/04 20:06:56;;;;;;;15.07;4.03;;;;;;;;;;5031117;28;20045;-89
2022/02/04 20:26:00;;;;;;;13.75;2.60;;;;;;;;;;5009433;28;20038;-85
2022/02/04 20:28:27;;;;;;;19.20;2.83;;;;;;;;;;4995594;28;20092;-86
2022/02/04 20:30:54;;;;;;;18.92;3.65;;;;;;;;;;4995811;28;20049;-82
2022/02/04 20:33:20;;;;;;;19.00;4.90;;;;;;;;;;5012288;28;20053;-86
2022/02/04 20:35:48;;;;;;;16.35;3.00;;;;;;;;;;5013918;28;20049;-84
2022/02/04 20:38:16;;;;;;;20.35;3.05;;;;;;;;;;5008505;28;20536;-83
2022/02/04 20:40:47;;;;;;;21.58;4.03;;;;;;;;;;5009159;28;20635;-83
2022/02/04 20:43:18;;;;;;;18.55;3.42;;;;;;;;;;5011017;28;20104;-82
2022/02/04 20:45:44;;;;;;;16.80;3.55;;;;;;;;;;4966992;28;20095;-82
2022/02/04 20:48:10;;;;;;;17.30;3.08;;;;;;;;;;4997829;28;20057;-81
2022/02/04 20:50:37;;;;;;;14.25;2.95;;;;;;;;;;4993805;28;20141;-88
2022/02/04 20:53:03;;;;;;;19.50;3.85;;;;;;;;;;5002577;28;20116;-88
2022/02/04 20:55:31;;;;;;;26.40;4.72;;;;;;;;;;4996459;28;20052;-85
2022/02/04 20:57:59;;;;;;;21.77;4.18;;;;;;;;;;4994979;28;20499;-84
2022/02/04 21:00:30;;;;;;;29.70;6.68;;;;;;;;;;4997180;28;20115;-88
2022/02/04 21:02:58;;;;;;;17.15;4.28;;;;;;;;;;5013593;28;20111;-88
2022/02/04 21:05:35;;;;;;;28.35;5.22;;;;;;;;;;5010773;28;20096;-83
2022/02/04 21:16:07;;;;;;;24.45;6.25;;;;;;;;;;5011114;28;20172;-94
2022/02/04 21:18:33;;;;;;;31.42;7.32;;;;;;;;;;4989841;28;20046;-92
2022/02/04 21:20:59;;;;;;;23.38;5.55;;;;;;;;;;4979386;28;20125;-85
2022/02/04 21:23:26;;;;;;;24.77;5.10;;;;;;;;;;5011433;28;20057;-87
2022/02/04 21:25:52;;;;;;;24.30;5.53;;;;;;;;;;5011072;28;20053;-82
2022/02/04 21:28:22;;;;;;;20.92;3.67;;;;;;;;;;5011031;28;20131;-82
2022/02/04 21:30:49;;;;;;;17.50;3.60;;;;;;;;;;4974880;28;20061;-85
2022/02/04 21:33:44;;;;;;;12.88;4.40;;;;;;;;;;5007006;28;20084;-90
2022/02/04 21:38:49;;;;;;;11.20;3.35;;;;;;;;;;5008815;28;20045;-82
2022/02/04 21:41:16;;;;;;;17.55;2.83;;;;;;;;;;4978993;28;20041;-82
2022/02/04 21:43:45;;;;;;;15.88;2.42;;;;;;;;;;5009546;28;20122;-91
2022/02/04 21:46:11;;;;;;;14.77;2.70;;;;;;;;;;5011793;28;20046;-89
2022/02/04 21:48:49;;;;;;;11.07;3.03;;;;;;;;;;4995130;28;20057;-92
2022/02/04 21:51:16;;;;;;;18.50;3.20;;;;;;;;;;4994370;28;20057;-88